Taxila Weather



Taxila's Current Weather

Temprature 32.11o clear sky

clear sky

Rain: 0 %

Min Temprature32o
Max Temprature32.22o
Humidity75
Wind Speed4.6 m/h
Sun Rise05:29:26
Sun Set18:57:57
Current Time: 13-Aug-2020 18:58:03
Lat/Lon: 33.75, 72.81




Taxila's Geo Location



Taxila's Weather Forecast

Time Overall Temp Min Temp Max Temp Humidity Wind Speed Rain
13-Aug-2020 (Thu)
20:00:00 clear sky 31.730 31.330 31.730 68 3.67 m/h 0 %
23:00:00 clear sky 30.020 29.440 30.020 71 6.41 m/h 0 %
14-Aug-2020 (Fri)
02:00:00 light rain 28.080 27.800 28.080 79 5.15 m/h 174 %
05:00:00 moderate rain 27.010 26.970 27.010 80 4.42 m/h 534 %
08:00:00 light rain 29.270 29.270 29.270 70 4.25 m/h 69 %
11:00:00 light rain 32.580 32.580 32.580 59 5.16 m/h 75 %
14:00:00 light rain 34.300 34.300 34.300 52 3.34 m/h 285 %
17:00:00 light rain 34.130 34.130 34.130 53 3.17 m/h 44 %
20:00:00 clear sky 30.270 30.270 30.270 65 3.43 m/h 0 %
23:00:00 light rain 29.350 29.350 29.350 65 3.84 m/h 20 %
15-Aug-2020 (Sat)
02:00:00 moderate rain 27.210 27.210 27.210 78 2.57 m/h 383 %
05:00:00 light rain 26.920 26.920 26.920 80 1.54 m/h 236 %
08:00:00 light rain 29.570 29.570 29.570 68 1.68 m/h 92 %
11:00:00 light rain 33.300 33.300 33.300 57 2.62 m/h 68 %
14:00:00 few clouds 36.120 36.120 36.120 45 2.95 m/h 0 %
17:00:00 few clouds 35.000 35.000 35.000 52 4.24 m/h 0 %
20:00:00 clear sky 31.420 31.420 31.420 62 3.06 m/h 0 %
23:00:00 clear sky 30.550 30.550 30.550 62 2.8 m/h 0 %
16-Aug-2020 (Sun)
02:00:00 light rain 29.230 29.230 29.230 67 3.03 m/h 43 %
05:00:00 light rain 28.070 28.070 28.070 75 2.83 m/h 242 %
08:00:00 scattered clouds 30.590 30.590 30.590 65 2.88 m/h 0 %
11:00:00 light rain 33.930 33.930 33.930 54 3.04 m/h 47 %
14:00:00 light rain 35.250 35.250 35.250 50 1.71 m/h 52 %
17:00:00 light rain 35.690 35.690 35.690 48 2.78 m/h 17 %
20:00:00 clear sky 31.280 31.280 31.280 64 4.03 m/h 0 %
23:00:00 clear sky 30.560 30.560 30.560 65 3.51 m/h 0 %
17-Aug-2020 (Mon)
02:00:00 light rain 29.820 29.820 29.820 67 3.01 m/h 14 %
05:00:00 light rain 28.970 28.970 28.970 72 3.33 m/h 85 %
08:00:00 moderate rain 29.750 29.750 29.750 73 5.69 m/h 933 %
11:00:00 moderate rain 33.250 33.250 33.250 58 3.9 m/h 979 %
14:00:00 light rain 34.780 34.780 34.780 52 3.65 m/h 174 %
17:00:00 light rain 33.510 33.510 33.510 59 5.43 m/h 61 %
20:00:00 clear sky 30.360 30.360 30.360 65 3.97 m/h 0 %
23:00:00 clear sky 29.540 29.540 29.540 68 3.05 m/h 0 %
18-Aug-2020 (Tue)
02:00:00 light rain 28.750 28.750 28.750 71 3.48 m/h 24 %
05:00:00 moderate rain 26.870 26.870 26.870 82 2.51 m/h 599 %
08:00:00 moderate rain 29.320 29.320 29.320 73 3.82 m/h 409 %
11:00:00 moderate rain 32.920 32.920 32.920 61 4.95 m/h 462 %
14:00:00 light rain 35.450 35.450 35.450 51 4.32 m/h 93 %
17:00:00 light rain 33.380 33.380 33.380 59 5.71 m/h 23 %

Famous Cities (60)